sensor_id;sensor_type;location;lat;lon;timestamp;temperature;humidity
4487;DHT22;2256;48.740;9.106;2023-04-03T00:00:33;3.00;99.90
4487;DHT22;2256;48.740;9.106;2023-04-03T00:03:00;3.00;99.90
4487;DHT22;2256;48.740;9.106;2023-04-03T00:05:29;3.00;99.90
4487;DHT22;2256;48.740;9.106;2023-04-03T00:07:56;3.00;99.90
4487;DHT22;2256;48.740;9.106;2023-04-03T00:10:23;3.00;99.90
4487;DHT22;2256;48.740;9.106;2023-04-03T00:12:50;3.00;99.90
4487;DHT22;2256;48.740;9.106;2023-04-03T00:15:17;3.00;99.90
4487;DHT22;2256;48.740;9.106;2023-04-03T00:17:43;3.00;99.90
4487;DHT22;2256;48.740;9.106;2023-04-03T00:20:11;3.00;99.90
4487;DHT22;2256;48.740;9.106;2023-04-03T00:22:39;3.10;99.90
4487;DHT22;2256;48.740;9.106;2023-04-03T00:25:07;3.10;99.90
4487;DHT22;2256;48.740;9.106;2023-04-03T00:27:36;3.00;99.90
4487;DHT22;2256;48.740;9.106;2023-04-03T00:30:03;3.00;99.90
4487;DHT22;2256;48.740;9.106;2023-04-03T00:32:30;2.90;99.90
4487;DHT22;2256;48.740;9.106;2023-04-03T00:34:57;3.00;99.90
4487;DHT22;2256;48.740;9.106;2023-04-03T00:37:25;3.00;99.90
4487;DHT22;2256;48.740;9.106;2023-04-03T00:39:53;2.90;99.90
4487;DHT22;2256;48.740;9.106;2023-04-03T00:42:21;3.00;99.90
4487;DHT22;2256;48.740;9.106;2023-04-03T00:47:57;3.00;99.90
4487;DHT22;2256;48.740;9.106;2023-04-03T00:50:26;3.10;99.90
4487;DHT22;2256;48.740;9.106;2023-04-03T00:52:53;2.90;99.90
4487;DHT22;2256;48.740;9.106;2023-04-03T00:55:22;2.80;99.90
4487;DHT22;2256;48.740;9.106;2023-04-03T00:57:49;2.70;99.90
4487;DHT22;2256;48.740;9.106;2023-04-03T01:00:20;2.80;99.90
4487;DHT22;2256;48.740;9.106;2023-04-03T01:02:48;2.80;99.90
4487;DHT22;2256;48.740;9.106;2023-04-03T01:05:16;2.80;99.90
4487;DHT22;2256;48.740;9.106;2023-04-03T01:07:45;2.90;99.90
4487;DHT22;2256;48.740;9.106;2023-04-03T01:10:14;2.90;99.90
4487;DHT22;2256;48.740;9.106;2023-04-03T01:12:44;2.90;99.90
4487;DHT22;2256;48.740;9.106;2023-04-03T01:15:16;2.70;99.90
4487;DHT22;2256;48.740;9.106;2023-04-03T01:17:46;2.70;99.90
4487;DHT22;2256;48.740;9.106;2023-04-03T01:20:38;2.60;99.90
4487;DHT22;2256;48.740;9.106;2023-04-03T01:23:18;2.70;99.90
4487;DHT22;2256;48.740;9.106;2023-04-03T01:25:51;2.70;99.90
4487;DHT22;2256;48.740;9.106;2023-04-03T01:28:22;2.60;99.90
4487;DHT22;2256;48.740;9.106;2023-04-03T01:30:53;2.70;99.90
4487;DHT22;2256;48.740;9.106;2023-04-03T01:33:24;2.70;99.90
4487;DHT22;2256;48.740;9.106;2023-04-03T01:35:51;2.80;99.90
4487;DHT22;2256;48.740;9.106;2023-04-03T01:38:19;2.80;99.90
4487;DHT22;2256;48.740;9.106;2023-04-03T01:40:47;2.70;99.90
4487;DHT22;2256;48.740;9.106;2023-04-03T01:43:14;2.60;99.90
4487;DHT22;2256;48.740;9.106;2023-04-03T01:45:41;2.70;99.90
4487;DHT22;2256;48.740;9.106;2023-04-03T01:48:08;2.70;99.90
4487;DHT22;2256;48.740;9.106;2023-04-03T01:50:36;2.70;99.90
4487;DHT22;2256;48.740;9.106;2023-04-03T01:53:04;2.60;99.90
4487;DHT22;2256;48.740;9.106;2023-04-03T01:55:31;2.60;99.90
4487;DHT22;2256;48.740;9.106;2023-04-03T01:57:58;2.60;99.90
4487;DHT22;2256;48.740;9.106;2023-04-03T02:00:25;2.60;99.90
4487;DHT22;2256;48.740;9.106;2023-04-03T02:02:54;2.50;99.90
4487;DHT22;2256;48.740;9.106;2023-04-03T02:05:22;2.70;99.90
4487;DHT22;2256;48.740;9.106;2023-04-03T02:07:51;2.60;99.90
4487;DHT22;2256;48.740;9.106;2023-04-03T02:10:18;2.60;99.90
4487;DHT22;2256;48.740;9.106;2023-04-03T02:12:45;2.60;99.90
4487;DHT22;2256;48.740;9.106;2023-04-03T02:15:13;2.50;99.90
4487;DHT22;2256;48.740;9.106;2023-04-03T02:17:40;2.60;99.90
4487;DHT22;2256;48.740;9.106;2023-04-03T02:20:08;2.60;99.90
4487;DHT22;2256;48.740;9.106;2023-04-03T02:22:36;2.50;99.90
4487;DHT22;2256;48.740;9.106;2023-04-03T02:25:05;2.60;99.90
4487;DHT22;2256;48.740;9.106;2023-04-03T02:27:32;2.60;99.90
4487;DHT22;2256;48.740;9.106;2023-04-03T02:29:59;2.50;99.90
4487;DHT22;2256;48.740;9.106;2023-04-03T02:32:25;2.60;99.90
4487;DHT22;2256;48.740;9.106;2023-04-03T02:34:52;2.60;99.90
4487;DHT22;2256;48.740;9.106;2023-04-03T02:37:19;2.50;99.90
4487;DHT22;2256;48.740;9.106;2023-04-03T02:39:46;2.50;99.90
4487;DHT22;2256;48.740;9.106;2023-04-03T02:42:14;2.60;99.90
4487;DHT22;2256;48.740;9.106;2023-04-03T02:44:41;2.50;99.90
4487;DHT22;2256;48.740;9.106;2023-04-03T02:47:09;2.70;99.90
4487;DHT22;2256;48.740;9.106;2023-04-03T02:49:36;2.60;99.90
4487;DHT22;2256;48.740;9.106;2023-04-03T02:52:02;2.60;99.90
4487;DHT22;2256;48.740;9.106;2023-04-03T02:54:29;2.50;99.90
4487;DHT22;2256;48.740;9.106;2023-04-03T02:56:57;2.50;99.90
4487;DHT22;2256;48.740;9.106;2023-04-03T02:59:25;2.50;99.90
4487;DHT22;2256;48.740;9.106;2023-04-03T03:01:52;2.60;99.90
4487;DHT22;2256;48.740;9.106;2023-04-03T03:04:20;2.50;99.90
4487;DHT22;2256;48.740;9.106;2023-04-03T03:06:48;2.40;99.90
4487;DHT22;2256;48.740;9.106;2023-04-03T03:09:14;2.50;99.90
4487;DHT22;2256;48.740;9.106;2023-04-03T03:11:41;2.60;99.90
4487;DHT22;2256;48.740;9.106;2023-04-03T03:14:08;2.60;99.90
4487;DHT22;2256;48.740;9.106;2023-04-03T03:16:39;2.50;99.90
4487;DHT22;2256;48.740;9.106;2023-04-03T03:19:06;2.60;99.90
4487;DHT22;2256;48.740;9.106;2023-04-03T03:21:34;2.50;99.90
4487;DHT22;2256;48.740;9.106;2023-04-03T03:24:01;2.40;99.90
4487;DHT22;2256;48.740;9.106;2023-04-03T03:26:28;2.50;99.90
4487;DHT22;2256;48.740;9.106;2023-04-03T03:28:55;2.40;99.90
4487;DHT22;2256;48.740;9.106;2023-04-03T03:31:28;2.40;99.90
4487;DHT22;2256;48.740;9.106;2023-04-03T03:33:57;2.40;99.90
4487;DHT22;2256;48.740;9.106;2023-04-03T03:36:25;2.40;99.90
4487;DHT22;2256;48.740;9.106;2023-04-03T03:38:52;2.40;99.90
4487;DHT22;2256;48.740;9.106;2023-04-03T03:41:19;2.40;99.90
4487;DHT22;2256;48.740;9.106;2023-04-03T03:43:47;2.40;99.90
4487;DHT22;2256;48.740;9.106;2023-04-03T03:46:14;2.30;99.90
4487;DHT22;2256;48.740;9.106;2023-04-03T03:48:41;2.30;99.90
4487;DHT22;2256;48.740;9.106;2023-04-03T03:51:10;2.30;99.90
4487;DHT22;2256;48.740;9.106;2023-04-03T03:53:39;2.40;99.90
4487;DHT22;2256;48.740;9.106;2023-04-03T03:56:08;2.40;99.90
4487;DHT22;2256;48.740;9.106;2023-04-03T03:58:44;2.30;99.90
4487;DHT22;2256;48.740;9.106;2023-04-03T04:01:12;2.30;99.90
4487;DHT22;2256;48.740;9.106;2023-04-03T04:03:39;2.30;99.90
4487;DHT22;2256;48.740;9.106;2023-04-03T04:06:06;2.40;99.90
4487;DHT22;2256;48.740;9.106;2023-04-03T04:08:35;2.40;99.90
4487;DHT22;2256;48.740;9.106;2023-04-03T04:11:02;2.50;99.90
4487;DHT22;2256;48.740;9.106;2023-04-03T04:13:29;2.60;99.90
4487;DHT22;2256;48.740;9.106;2023-04-03T04:15:56;2.60;99.90
4487;DHT22;2256;48.740;9.106;2023-04-03T04:18:22;2.50;99.90
4487;DHT22;2256;48.740;9.106;2023-04-03T04:20:50;2.60;99.90
4487;DHT22;2256;48.740;9.106;2023-04-03T04:23:19;2.60;99.90
4487;DHT22;2256;48.740;9.106;2023-04-03T04:25:47;2.50;99.90
4487;DHT22;2256;48.740;9.106;2023-04-03T04:28:14;2.50;99.90
4487;DHT22;2256;48.740;9.106;2023-04-03T04:30:41;2.60;99.90
4487;DHT22;2256;48.740;9.106;2023-04-03T04:33:08;2.60;99.90
4487;DHT22;2256;48.740;9.106;2023-04-03T04:35:35;2.60;99.90
4487;DHT22;2256;48.740;9.106;2023-04-03T04:38:02;2.60;99.90
4487;DHT22;2256;48.740;9.106;2023-04-03T04:40:29;2.50;99.90
4487;DHT22;2256;48.740;9.106;2023-04-03T04:42:57;2.40;99.90
4487;DHT22;2256;48.740;9.106;2023-04-03T04:45:24;2.50;99.90
4487;DHT22;2256;48.740;9.106;2023-04-03T04:47:51;2.40;99.90
4487;DHT22;2256;48.740;9.106;2023-04-03T04:50:19;2.50;99.90
4487;DHT22;2256;48.740;9.106;2023-04-03T04:52:46;2.50;99.90
4487;DHT22;2256;48.740;9.106;2023-04-03T04:55:14;2.40;99.90
4487;DHT22;2256;48.740;9.106;2023-04-03T04:57:41;2.50;99.90
4487;DHT22;2256;48.740;9.106;2023-04-03T05:00:11;2.50;99.90
4487;DHT22;2256;48.740;9.106;2023-04-03T05:02:38;2.40;99.90
4487;DHT22;2256;48.740;9.106;2023-04-03T05:05:11;2.40;99.90
4487;DHT22;2256;48.740;9.106;2023-04-03T05:07:38;2.50;99.90
4487;DHT22;2256;48.740;9.106;2023-04-03T05:10:07;2.40;99.90
4487;DHT22;2256;48.740;9.106;2023-04-03T05:12:34;2.40;99.90
4487;DHT22;2256;48.740;9.106;2023-04-03T05:15:01;2.50;99.90
4487;DHT22;2256;48.740;9.106;2023-04-03T05:17:29;2.60;99.90
4487;DHT22;2256;48.740;9.106;2023-04-03T05:19:56;2.60;99.90
4487;DHT22;2256;48.740;9.106;2023-04-03T05:22:23;2.60;99.90
4487;DHT22;2256;48.740;9.106;2023-04-03T05:24:50;2.70;99.90
4487;DHT22;2256;48.740;9.106;2023-04-03T05:27:16;2.50;99.90
4487;DHT22;2256;48.740;9.106;2023-04-03T05:29:43;2.60;99.90
4487;DHT22;2256;48.740;9.106;2023-04-03T05:32:10;2.50;99.90
4487;DHT22;2256;48.740;9.106;2023-04-03T05:34:40;2.70;99.90
4487;DHT22;2256;48.740;9.106;2023-04-03T05:37:07;2.80;99.90
4487;DHT22;2256;48.740;9.106;2023-04-03T05:39:34;2.80;99.90
4487;DHT22;2256;48.740;9.106;2023-04-03T05:42:02;2.80;99.90
4487;DHT22;2256;48.740;9.106;2023-04-03T05:44:29;2.80;99.90
4487;DHT22;2256;48.740;9.106;2023-04-03T05:46:56;2.80;99.90
4487;DHT22;2256;48.740;9.106;2023-04-03T05:49:23;2.80;99.90
4487;DHT22;2256;48.740;9.106;2023-04-03T05:51:52;2.90;99.90
4487;DHT22;2256;48.740;9.106;2023-04-03T05:54:21;3.10;99.90
4487;DHT22;2256;48.740;9.106;2023-04-03T05:56:49;3.60;99.90
4487;DHT22;2256;48.740;9.106;2023-04-03T05:59:17;3.70;99.90
4487;DHT22;2256;48.740;9.106;2023-04-03T06:01:44;3.60;99.90
4487;DHT22;2256;48.740;9.106;2023-04-03T06:04:13;3.60;99.90
4487;DHT22;2256;48.740;9.106;2023-04-03T06:06:47;3.60;99.90
4487;DHT22;2256;48.740;9.106;2023-04-03T06:09:16;3.70;99.90
4487;DHT22;2256;48.740;9.106;2023-04-03T06:11:44;3.60;99.90
4487;DHT22;2256;48.740;9.106;2023-04-03T06:14:11;3.40;99.90
4487;DHT22;2256;48.740;9.106;2023-04-03T06:16:39;3.30;99.90
4487;DHT22;2256;48.740;9.106;2023-04-03T06:19:06;3.30;99.90
4487;DHT22;2256;48.740;9.106;2023-04-03T06:21:33;3.30;99.90
4487;DHT22;2256;48.740;9.106;2023-04-03T06:24:01;3.20;99.90
4487;DHT22;2256;48.740;9.106;2023-04-03T06:26:29;3.10;99.90
4487;DHT22;2256;48.740;9.106;2023-04-03T06:28:56;3.10;99.90
4487;DHT22;2256;48.740;9.106;2023-04-03T06:31:23;3.10;99.90
4487;DHT22;2256;48.740;9.106;2023-04-03T06:33:50;3.20;99.90
4487;DHT22;2256;48.740;9.106;2023-04-03T06:36:18;3.10;99.90
4487;DHT22;2256;48.740;9.106;2023-04-03T06:38:46;3.10;99.90
4487;DHT22;2256;48.740;9.106;2023-04-03T06:41:14;3.10;99.90
4487;DHT22;2256;48.740;9.106;2023-04-03T06:43:43;3.20;99.90
4487;DHT22;2256;48.740;9.106;2023-04-03T06:46:13;3.30;99.90
4487;DHT22;2256;48.740;9.106;2023-04-03T06:48:40;3.50;99.90
4487;DHT22;2256;48.740;9.106;2023-04-03T06:51:19;3.50;99.90
4487;DHT22;2256;48.740;9.106;2023-04-03T06:53:46;3.60;99.90
4487;DHT22;2256;48.740;9.106;2023-04-03T06:56:13;3.50;99.90
4487;DHT22;2256;48.740;9.106;2023-04-03T06:58:42;3.50;99.90
4487;DHT22;2256;48.740;9.106;2023-04-03T07:01:10;3.40;99.90
4487;DHT22;2256;48.740;9.106;2023-04-03T07:03:37;3.40;99.90
4487;DHT22;2256;48.740;9.106;2023-04-03T07:06:06;3.40;99.90
4487;DHT22;2256;48.740;9.106;2023-04-03T07:08:34;3.30;99.90
4487;DHT22;2256;48.740;9.106;2023-04-03T07:11:01;3.20;99.90
4487;DHT22;2256;48.740;9.106;2023-04-03T07:13:30;3.20;99.90
4487;DHT22;2256;48.740;9.106;2023-04-03T07:15:59;3.20;99.90
4487;DHT22;2256;48.740;9.106;2023-04-03T07:18:26;3.30;99.90
4487;DHT22;2256;48.740;9.106;2023-04-03T07:20:52;3.30;99.90
4487;DHT22;2256;48.740;9.106;2023-04-03T07:23:20;3.20;99.90
4487;DHT22;2256;48.740;9.106;2023-04-03T07:25:48;3.30;99.90
4487;DHT22;2256;48.740;9.106;2023-04-03T07:28:17;3.30;99.90
4487;DHT22;2256;48.740;9.106;2023-04-03T07:30:45;3.50;99.90
4487;DHT22;2256;48.740;9.106;2023-04-03T07:33:16;3.80;99.90
4487;DHT22;2256;48.740;9.106;2023-04-03T07:35:43;3.90;99.90
4487;DHT22;2256;48.740;9.106;2023-04-03T07:38:10;4.00;99.90
4487;DHT22;2256;48.740;9.106;2023-04-03T07:40:45;4.20;99.90
4487;DHT22;2256;48.740;9.106;2023-04-03T07:43:12;4.00;99.90
4487;DHT22;2256;48.740;9.106;2023-04-03T07:45:39;4.30;99.90
4487;DHT22;2256;48.740;9.106;2023-04-03T07:48:05;4.10;99.90
4487;DHT22;2256;48.740;9.106;2023-04-03T07:50:33;4.20;99.90
4487;DHT22;2256;48.740;9.106;2023-04-03T07:53:01;4.20;99.90
4487;DHT22;2256;48.740;9.106;2023-04-03T07:55:28;4.20;99.90
4487;DHT22;2256;48.740;9.106;2023-04-03T07:57:56;4.30;99.90
4487;DHT22;2256;48.740;9.106;2023-04-03T08:00:23;4.10;99.90
4487;DHT22;2256;48.740;9.106;2023-04-03T08:02:50;4.30;99.90
4487;DHT22;2256;48.740;9.106;2023-04-03T08:05:17;4.50;99.90
4487;DHT22;2256;48.740;9.106;2023-04-03T08:07:46;4.50;99.90
4487;DHT22;2256;48.740;9.106;2023-04-03T08:10:15;4.50;99.90
4487;DHT22;2256;48.740;9.106;2023-04-03T08:12:45;4.60;99.90
4487;DHT22;2256;48.740;9.106;2023-04-03T08:15:13;4.50;99.90
4487;DHT22;2256;48.740;9.106;2023-04-03T08:17:40;4.50;99.90
4487;DHT22;2256;48.740;9.106;2023-04-03T08:20:10;4.40;99.90
4487;DHT22;2256;48.740;9.106;2023-04-03T08:22:38;4.30;99.90
4487;DHT22;2256;48.740;9.106;2023-04-03T08:25:08;4.10;99.90
4487;DHT22;2256;48.740;9.106;2023-04-03T08:27:35;4.20;99.90
4487;DHT22;2256;48.740;9.106;2023-04-03T08:30:03;4.20;99.90
4487;DHT22;2256;48.740;9.106;2023-04-03T08:32:30;4.40;99.90
4487;DHT22;2256;48.740;9.106;2023-04-03T08:34:57;4.50;99.90
4487;DHT22;2256;48.740;9.106;2023-04-03T08:37:23;4.70;99.90
4487;DHT22;2256;48.740;9.106;2023-04-03T08:40:00;4.80;99.90
4487;DHT22;2256;48.740;9.106;2023-04-03T08:42:39;4.60;99.90
4487;DHT22;2256;48.740;9.106;2023-04-03T08:45:11;4.50;99.90
4487;DHT22;2256;48.740;9.106;2023-04-03T08:47:42;4.50;99.90
4487;DHT22;2256;48.740;9.106;2023-04-03T08:50:14;4.50;99.90
4487;DHT22;2256;48.740;9.106;2023-04-03T08:52:46;4.60;99.90
4487;DHT22;2256;48.740;9.106;2023-04-03T08:55:22;4.90;99.90
4487;DHT22;2256;48.740;9.106;2023-04-03T08:57:58;4.90;99.90
4487;DHT22;2256;48.740;9.106;2023-04-03T09:00:30;4.70;99.90
4487;DHT22;2256;48.740;9.106;2023-04-03T09:03:01;4.80;99.90
4487;DHT22;2256;48.740;9.106;2023-04-03T09:05:35;5.00;99.90
4487;DHT22;2256;48.740;9.106;2023-04-03T09:08:11;5.60;99.90
4487;DHT22;2256;48.740;9.106;2023-04-03T09:10:40;5.90;99.90
4487;DHT22;2256;48.740;9.106;2023-04-03T09:13:12;6.30;99.90
4487;DHT22;2256;48.740;9.106;2023-04-03T09:15:46;6.90;99.90
4487;DHT22;2256;48.740;9.106;2023-04-03T09:18:16;6.90;99.90
4487;DHT22;2256;48.740;9.106;2023-04-03T09:20:49;7.00;99.90
4487;DHT22;2256;48.740;9.106;2023-04-03T09:23:26;6.80;99.30
4487;DHT22;2256;48.740;9.106;2023-04-03T09:26:02;6.60;99.80
4487;DHT22;2256;48.740;9.106;2023-04-03T09:28:33;6.50;99.50
4487;DHT22;2256;48.740;9.106;2023-04-03T09:31:00;6.30;99.20
4487;DHT22;2256;48.740;9.106;2023-04-03T09:33:29;6.30;99.50
4487;DHT22;2256;48.740;9.106;2023-04-03T09:35:58;6.10;99.50
4487;DHT22;2256;48.740;9.106;2023-04-03T09:38:25;5.90;99.50
4487;DHT22;2256;48.740;9.106;2023-04-03T09:41:04;5.90;99.80
4487;DHT22;2256;48.740;9.106;2023-04-03T09:43:33;5.80;99.90
4487;DHT22;2256;48.740;9.106;2023-04-03T09:46:25;5.80;99.80
4487;DHT22;2256;48.740;9.106;2023-04-03T09:48:56;5.70;99.50
4487;DHT22;2256;48.740;9.106;2023-04-03T09:51:25;5.70;99.40
4487;DHT22;2256;48.740;9.106;2023-04-03T09:53:53;5.60;99.90
4487;DHT22;2256;48.740;9.106;2023-04-03T09:56:23;5.70;99.90
4487;DHT22;2256;48.740;9.106;2023-04-03T09:59:07;5.80;99.90
4487;DHT22;2256;48.740;9.106;2023-04-03T10:01:37;5.80;99.70
4487;DHT22;2256;48.740;9.106;2023-04-03T10:04:07;5.70;99.90
4487;DHT22;2256;48.740;9.106;2023-04-03T10:06:37;5.60;99.90
4487;DHT22;2256;48.740;9.106;2023-04-03T10:09:17;5.40;99.80
4487;DHT22;2256;48.740;9.106;2023-04-03T10:12:02;5.20;99.30
4487;DHT22;2256;48.740;9.106;2023-04-03T10:14:34;5.00;99.70
4487;DHT22;2256;48.740;9.106;2023-04-03T10:17:17;4.80;99.90
4487;DHT22;2256;48.740;9.106;2023-04-03T10:19:47;4.80;99.90
4487;DHT22;2256;48.740;9.106;2023-04-03T10:22:20;4.70;99.90
4487;DHT22;2256;48.740;9.106;2023-04-03T10:24:59;4.60;99.90
4487;DHT22;2256;48.740;9.106;2023-04-03T10:27:36;4.50;99.90
4487;DHT22;2256;48.740;9.106;2023-04-03T10:30:20;4.60;99.90
4487;DHT22;2256;48.740;9.106;2023-04-03T10:32:57;4.80;99.90
4487;DHT22;2256;48.740;9.106;2023-04-03T10:35:37;4.90;99.90
4487;DHT22;2256;48.740;9.106;2023-04-03T10:38:14;5.10;99.80
4487;DHT22;2256;48.740;9.106;2023-04-03T10:40:50;5.00;99.80
4487;DHT22;2256;48.740;9.106;2023-04-03T10:43:27;5.10;99.50
4487;DHT22;2256;48.740;9.106;2023-04-03T10:46:02;5.10;99.20
4487;DHT22;2256;48.740;9.106;2023-04-03T10:48:40;4.90;99.30
4487;DHT22;2256;48.740;9.106;2023-04-03T10:51:22;4.80;99.20
4487;DHT22;2256;48.740;9.106;2023-04-03T10:53:56;4.70;99.10
4487;DHT22;2256;48.740;9.106;2023-04-03T10:56:31;4.70;99.50
4487;DHT22;2256;48.740;9.106;2023-04-03T10:59:02;4.60;99.70
4487;DHT22;2256;48.740;9.106;2023-04-03T11:01:38;4.60;99.20
4487;DHT22;2256;48.740;9.106;2023-04-03T11:04:06;4.60;99.50
4487;DHT22;2256;48.740;9.106;2023-04-03T11:06:37;4.60;99.50
4487;DHT22;2256;48.740;9.106;2023-04-03T11:09:15;4.80;99.60
4487;DHT22;2256;48.740;9.106;2023-04-03T11:11:45;5.00;99.90
4487;DHT22;2256;48.740;9.106;2023-04-03T11:14:20;4.90;99.40
4487;DHT22;2256;48.740;9.106;2023-04-03T11:17:05;4.90;99.00
4487;DHT22;2256;48.740;9.106;2023-04-03T11:19:39;4.90;98.90
4487;DHT22;2256;48.740;9.106;2023-04-03T11:22:16;5.10;99.40
4487;DHT22;2256;48.740;9.106;2023-04-03T11:24:55;5.10;99.00
4487;DHT22;2256;48.740;9.106;2023-04-03T11:27:25;5.40;99.30
4487;DHT22;2256;48.740;9.106;2023-04-03T11:29:57;5.30;98.60
4487;DHT22;2256;48.740;9.106;2023-04-03T11:32:40;5.60;98.80
4487;DHT22;2256;48.740;9.106;2023-04-03T11:35:12;5.60;97.40
4487;DHT22;2256;48.740;9.106;2023-04-03T11:37:43;5.50;97.20
4487;DHT22;2256;48.740;9.106;2023-04-03T11:40:21;5.50;97.50
4487;DHT22;2256;48.740;9.106;2023-04-03T11:42:51;5.20;96.60
4487;DHT22;2256;48.740;9.106;2023-04-03T11:45:32;5.10;97.10
4487;DHT22;2256;48.740;9.106;2023-04-03T11:48:04;5.10;97.10
4487;DHT22;2256;48.740;9.106;2023-04-03T11:50:43;5.10;96.80
4487;DHT22;2256;48.740;9.106;2023-04-03T11:53:27;5.10;96.80
4487;DHT22;2256;48.740;9.106;2023-04-03T11:55:59;5.10;97.10
4487;DHT22;2256;48.740;9.106;2023-04-03T11:58:29;5.20;96.90
4487;DHT22;2256;48.740;9.106;2023-04-03T12:01:05;5.30;96.90
4487;DHT22;2256;48.740;9.106;2023-04-03T12:03:57;5.50;96.80
4487;DHT22;2256;48.740;9.106;2023-04-03T12:10:15;5.50;96.50
4487;DHT22;2256;48.740;9.106;2023-04-03T12:12:56;5.50;96.70
4487;DHT22;2256;48.740;9.106;2023-04-03T12:15:49;5.60;96.30
4487;DHT22;2256;48.740;9.106;2023-04-03T12:18:55;5.50;96.00
4487;DHT22;2256;48.740;9.106;2023-04-03T12:21:24;5.60;96.10
4487;DHT22;2256;48.740;9.106;2023-04-03T12:24:26;5.40;95.30
4487;DHT22;2256;48.740;9.106;2023-04-03T12:27:12;5.40;95.60
4487;DHT22;2256;48.740;9.106;2023-04-03T12:29:46;5.50;95.60
4487;DHT22;2256;48.740;9.106;2023-04-03T12:32:24;5.50;95.70
4487;DHT22;2256;48.740;9.106;2023-04-03T12:35:08;5.40;95.70
4487;DHT22;2256;48.740;9.106;2023-04-03T12:38:00;5.20;95.70
4487;DHT22;2256;48.740;9.106;2023-04-03T12:40:37;5.10;96.00
4487;DHT22;2256;48.740;9.106;2023-04-03T12:43:29;5.00;96.20
4487;DHT22;2256;48.740;9.106;2023-04-03T12:46:03;5.20;95.90
4487;DHT22;2256;48.740;9.106;2023-04-03T12:48:34;5.30;95.70
4487;DHT22;2256;48.740;9.106;2023-04-03T12:51:04;5.30;95.30
4487;DHT22;2256;48.740;9.106;2023-04-03T12:53:33;5.30;95.70
4487;DHT22;2256;48.740;9.106;2023-04-03T12:56:22;5.30;95.40
4487;DHT22;2256;48.740;9.106;2023-04-03T12:58:51;5.30;95.90
4487;DHT22;2256;48.740;9.106;2023-04-03T13:01:21;5.40;95.70
4487;DHT22;2256;48.740;9.106;2023-04-03T13:03:49;5.40;95.70
4487;DHT22;2256;48.740;9.106;2023-04-03T13:06:21;5.30;94.70
4487;DHT22;2256;48.740;9.106;2023-04-03T13:08:50;5.30;95.00
4487;DHT22;2256;48.740;9.106;2023-04-03T13:11:19;5.30;95.20
4487;DHT22;2256;48.740;9.106;2023-04-03T13:14:00;5.50;95.20
4487;DHT22;2256;48.740;9.106;2023-04-03T13:16:28;5.40;95.00
4487;DHT22;2256;48.740;9.106;2023-04-03T13:18:55;5.40;94.80
4487;DHT22;2256;48.740;9.106;2023-04-03T13:21:24;5.60;94.90
4487;DHT22;2256;48.740;9.106;2023-04-03T13:23:55;5.60;94.40
4487;DHT22;2256;48.740;9.106;2023-04-03T13:26:25;5.80;94.50
4487;DHT22;2256;48.740;9.106;2023-04-03T13:28:54;6.00;93.80
4487;DHT22;2256;48.740;9.106;2023-04-03T13:31:27;6.10;93.70
4487;DHT22;2256;48.740;9.106;2023-04-03T13:33:57;6.20;93.60
4487;DHT22;2256;48.740;9.106;2023-04-03T13:36:27;6.10;92.90
4487;DHT22;2256;48.740;9.106;2023-04-03T13:39:00;6.10;93.40
4487;DHT22;2256;48.740;9.106;2023-04-03T13:41:31;6.20;93.50
4487;DHT22;2256;48.740;9.106;2023-04-03T13:44:14;6.40;93.10
4487;DHT22;2256;48.740;9.106;2023-04-03T13:46:43;6.60;93.30
4487;DHT22;2256;48.740;9.106;2023-04-03T13:49:22;6.80;93.10
4487;DHT22;2256;48.740;9.106;2023-04-03T13:51:54;6.60;92.60
4487;DHT22;2256;48.740;9.106;2023-04-03T13:54:24;6.50;92.90
4487;DHT22;2256;48.740;9.106;2023-04-03T13:56:53;6.40;92.70
4487;DHT22;2256;48.740;9.106;2023-04-03T13:59:27;6.30;92.70
4487;DHT22;2256;48.740;9.106;2023-04-03T14:02:14;6.30;93.20
4487;DHT22;2256;48.740;9.106;2023-04-03T14:04:50;6.40;92.60
4487;DHT22;2256;48.740;9.106;2023-04-03T14:07:19;6.40;92.40
4487;DHT22;2256;48.740;9.106;2023-04-03T14:09:47;6.50;91.60
4487;DHT22;2256;48.740;9.106;2023-04-03T14:12:17;6.40;91.50
4487;DHT22;2256;48.740;9.106;2023-04-03T14:14:45;6.40;91.50
4487;DHT22;2256;48.740;9.106;2023-04-03T14:17:16;6.50;91.50
4487;DHT22;2256;48.740;9.106;2023-04-03T14:19:44;6.50;91.50
4487;DHT22;2256;48.740;9.106;2023-04-03T14:22:15;6.20;91.30
4487;DHT22;2256;48.740;9.106;2023-04-03T14:24:42;6.20;92.40
4487;DHT22;2256;48.740;9.106;2023-04-03T14:27:15;6.30;91.80
4487;DHT22;2256;48.740;9.106;2023-04-03T14:29:43;6.20;92.40
4487;DHT22;2256;48.740;9.106;2023-04-03T14:32:14;6.00;92.40
4487;DHT22;2256;48.740;9.106;2023-04-03T14:34:43;5.80;92.40
4487;DHT22;2256;48.740;9.106;2023-04-03T14:37:12;5.80;92.90
4487;DHT22;2256;48.740;9.106;2023-04-03T14:39:40;5.90;92.60
4487;DHT22;2256;48.740;9.106;2023-04-03T14:42:12;5.90;92.40
4487;DHT22;2256;48.740;9.106;2023-04-03T14:44:40;5.90;92.60
4487;DHT22;2256;48.740;9.106;2023-04-03T14:47:10;5.80;92.70
4487;DHT22;2256;48.740;9.106;2023-04-03T14:49:39;5.70;92.60
4487;DHT22;2256;48.740;9.106;2023-04-03T14:52:06;5.60;92.70
4487;DHT22;2256;48.740;9.106;2023-04-03T14:54:43;5.70;92.40
4487;DHT22;2256;48.740;9.106;2023-04-03T14:57:13;6.00;93.20
4487;DHT22;2256;48.740;9.106;2023-04-03T14:59:40;6.30;92.00
4487;DHT22;2256;48.740;9.106;2023-04-03T15:02:24;6.60;91.30
4487;DHT22;2256;48.740;9.106;2023-04-03T15:04:52;7.10;91.30
4487;DHT22;2256;48.740;9.106;2023-04-03T15:07:20;7.30;90.10
4487;DHT22;2256;48.740;9.106;2023-04-03T15:09:46;7.20;90.40
4487;DHT22;2256;48.740;9.106;2023-04-03T15:12:13;6.90;90.40
4487;DHT22;2256;48.740;9.106;2023-04-03T15:14:40;6.50;90.00
4487;DHT22;2256;48.740;9.106;2023-04-03T15:17:14;6.20;90.30
4487;DHT22;2256;48.740;9.106;2023-04-03T15:19:41;6.00;90.60
4487;DHT22;2256;48.740;9.106;2023-04-03T15:22:13;5.80;90.90
4487;DHT22;2256;48.740;9.106;2023-04-03T15:24:40;5.90;91.40
4487;DHT22;2256;48.740;9.106;2023-04-03T15:27:08;5.90;91.20
4487;DHT22;2256;48.740;9.106;2023-04-03T15:29:36;6.00;91.20
4487;DHT22;2256;48.740;9.106;2023-04-03T15:32:04;6.10;91.20
4487;DHT22;2256;48.740;9.106;2023-04-03T15:34:31;6.10;91.10
4487;DHT22;2256;48.740;9.106;2023-04-03T15:36:58;6.00;90.10
4487;DHT22;2256;48.740;9.106;2023-04-03T15:39:26;6.00;90.90
4487;DHT22;2256;48.740;9.106;2023-04-03T15:41:54;6.20;90.60
4487;DHT22;2256;48.740;9.106;2023-04-03T15:44:21;6.00;90.40
4487;DHT22;2256;48.740;9.106;2023-04-03T15:46:49;5.90;88.90
4487;DHT22;2256;48.740;9.106;2023-04-03T15:49:17;5.90;89.40
4487;DHT22;2256;48.740;9.106;2023-04-03T15:51:44;5.90;88.80
4487;DHT22;2256;48.740;9.106;2023-04-03T15:54:12;5.80;89.00
4487;DHT22;2256;48.740;9.106;2023-04-03T15:56:40;5.80;89.30
4487;DHT22;2256;48.740;9.106;2023-04-03T15:59:07;5.70;90.70
4487;DHT22;2256;48.740;9.106;2023-04-03T16:01:33;5.50;90.20
4487;DHT22;2256;48.740;9.106;2023-04-03T16:04:00;5.30;90.00
4487;DHT22;2256;48.740;9.106;2023-04-03T16:06:28;5.30;90.10
4487;DHT22;2256;48.740;9.106;2023-04-03T16:08:57;5.20;90.50
4487;DHT22;2256;48.740;9.106;2023-04-03T16:11:24;5.30;90.80
4487;DHT22;2256;48.740;9.106;2023-04-03T16:13:55;5.30;90.60
4487;DHT22;2256;48.740;9.106;2023-04-03T16:16:23;5.50;90.50
4487;DHT22;2256;48.740;9.106;2023-04-03T16:18:51;5.50;90.30
4487;DHT22;2256;48.740;9.106;2023-04-03T16:21:19;5.70;90.40
4487;DHT22;2256;48.740;9.106;2023-04-03T16:23:46;5.80;90.30
4487;DHT22;2256;48.740;9.106;2023-04-03T16:26:14;5.80;90.20
4487;DHT22;2256;48.740;9.106;2023-04-03T16:28:42;6.00;89.90
4487;DHT22;2256;48.740;9.106;2023-04-03T16:31:11;6.00;89.50
4487;DHT22;2256;48.740;9.106;2023-04-03T16:33:38;5.90;90.20
4487;DHT22;2256;48.740;9.106;2023-04-03T16:36:05;5.80;89.70
4487;DHT22;2256;48.740;9.106;2023-04-03T16:38:33;5.70;89.10
4487;DHT22;2256;48.740;9.106;2023-04-03T16:41:00;5.60;87.90
4487;DHT22;2256;48.740;9.106;2023-04-03T16:43:30;5.40;87.60